Impacts METAR Board
IDs:

KEWR - Newark Intl, NJ, US

Updated at: 1700 UTC 09 Jun 2023
Potential Impact None Slight Moderate High
Time 09/05Z 09/06Z 09/07Z 09/08Z 09/09Z 09/10Z 09/11Z 09/12Z 09/13Z 09/14Z 09/15Z 09/16Z 09/17Z
Temp64 63 62 61 60 59 61 63 65 68 69 71 71
Dewpt46 47 47 48 48 48 49 49 49 49 48 47 46
Altim29.74 29.73 29.73 29.72 29.73 29.74 29.75 29.76 29.77 29.76 29.76 29.75 29.74
VIS10 10 10 10 10 10 10 10 10 10 10 10 10
CIG75 80 140 70 150 250 250 250 250 250 38 45 50
CoverBKNOVCOVCOVCOVCBKNBKNBKNBKNBKNBKNBKNBKN
FltCatVFRVFRVFRVFRVFRVFRVFRVFRVFRVFRVFRVFRVFR
WX--------------------------
WDir31031031030031032031031003502900210
WSpd8 8 5 7 7 6 6 6 5 7 5 4 3
WGst-- -- -- -- -- 16 -- -- -- -- -- -- --
Raw hourly METARs
KEWR 090451Z 31008KT 10SM BKN075 BKN100 BKN140 18/08 A2974 RMK AO2 SLP070 T01780078 402500100
KEWR 090551Z 31008KT 10SM OVC080 17/08 A2973 RMK AO2 SLP066 T01720083 10206 20172 58005
KEWR 090651Z 31005KT 10SM SCT080 OVC140 17/08 A2973 RMK AO2 SLP065 T01670083
KEWR 090751Z 30007KT 10SM BKN070 OVC140 16/09 A2972 RMK AO2 SLP064 T01610089
KEWR 090851Z 31007KT 10SM SCT070 OVC150 16/09 A2973 RMK AO2 SLP066 T01560089 55001
KEWR 090951Z 32006G16KT 10SM FEW070 SCT150 BKN250 15/09 A2974 RMK AO2 SLP072 T01500089
KEWR 091051Z 31006KT 10SM FEW070 SCT150 BKN250 16/09 A2975 RMK AO2 SLP073 T01610094
KEWR 091151Z 31006KT 10SM FEW025 FEW060 SCT150 BKN250 17/09 A2976 RMK AO2 SLP078 T01720094 10172 20150 51012
KEWR 091251Z VRB05KT 10SM FEW028 SCT095 BKN250 18/09 A2977 RMK AO2 SLP079 T01830094
KEWR 091351Z 35007KT 10SM SCT030 SCT100 BKN250 20/09 A2976 RMK AO2 SLP077 T02000094
KEWR 091451Z 29005KT 10SM BKN038 BKN250 21/09 A2976 RMK AO2 SLP076 T02060089 58001
KEWR 091551Z VRB04KT 10SM BKN045 BKN060 BKN250 22/08 A2975 RMK AO2 SLP074 T02170083
KEWR 091651Z 21003KT 10SM BKN050 BKN070 BKN090 BKN250 22/08 A2974 RMK AO2 SLP070 T02170078



Page loaded:  17:55 UTC  |   10:55 AM Pacific  |   11:55 AM Mountain  |   12:55 PM Central  |   01:55 PM Eastern

 

ADVISORIES

FORECASTS

FORECASTS

OBSERVATIONS

USER TOOLS

ABOUT US